sensor_id;sensor_type;location;lat;lon;timestamp;pressure;altitude;pressure_sealevel;temperature;humidity
71195;BME280;58908;51.426;7.714;2022-12-10T00:00:37;99051.34;;;-1.37;100.00
71195;BME280;58908;51.426;7.714;2022-12-10T00:03:03;99056.50;;;-1.35;100.00
71195;BME280;58908;51.426;7.714;2022-12-10T00:05:31;99056.44;;;-1.34;100.00
71195;BME280;58908;51.426;7.714;2022-12-10T00:07:58;99053.84;;;-1.34;100.00
71195;BME280;58908;51.426;7.714;2022-12-10T00:10:25;99058.19;;;-1.34;100.00
71195;BME280;58908;51.426;7.714;2022-12-10T00:12:51;99053.81;;;-1.32;100.00
71195;BME280;58908;51.426;7.714;2022-12-10T00:15:17;99059.03;;;-1.34;100.00
71195;BME280;58908;51.426;7.714;2022-12-10T00:17:43;99056.59;;;-1.41;100.00
71195;BME280;58908;51.426;7.714;2022-12-10T00:20:10;99057.47;;;-1.41;100.00
71195;BME280;58908;51.426;7.714;2022-12-10T00:22:38;99052.19;;;-1.36;100.00
71195;BME280;58908;51.426;7.714;2022-12-10T00:25:04;99053.84;;;-1.34;100.00
71195;BME280;58908;51.426;7.714;2022-12-10T00:27:30;99048.66;;;-1.32;100.00
71195;BME280;58908;51.426;7.714;2022-12-10T00:29:56;99044.34;;;-1.32;100.00
71195;BME280;58908;51.426;7.714;2022-12-10T00:32:23;99043.63;;;-1.38;100.00
71195;BME280;58908;51.426;7.714;2022-12-10T00:34:49;99051.34;;;-1.37;100.00
71195;BME280;58908;51.426;7.714;2022-12-10T00:37:15;99050.44;;;-1.34;100.00
71195;BME280;58908;51.426;7.714;2022-12-10T00:39:43;99052.16;;;-1.35;100.00
71195;BME280;58908;51.426;7.714;2022-12-10T00:42:09;99045.47;;;-1.45;100.00
71195;BME280;58908;51.426;7.714;2022-12-10T00:44:35;99045.34;;;-1.39;100.00
71195;BME280;58908;51.426;7.714;2022-12-10T00:47:02;99037.66;;;-1.42;100.00
71195;BME280;58908;51.426;7.714;2022-12-10T00:49:28;99043.94;;;-1.53;100.00
71195;BME280;58908;51.426;7.714;2022-12-10T00:51:54;99043.84;;;-1.50;100.00
71195;BME280;58908;51.426;7.714;2022-12-10T00:54:20;99038.59;;;-1.46;100.00
71195;BME280;58908;51.426;7.714;2022-12-10T00:56:48;99042.03;;;-1.44;100.00
71195;BME280;58908;51.426;7.714;2022-12-10T00:59:14;99044.56;;;-1.42;100.00
71195;BME280;58908;51.426;7.714;2022-12-10T01:01:41;99047.13;;;-1.42;100.00
71195;BME280;58908;51.426;7.714;2022-12-10T01:04:08;99057.56;;;-1.45;100.00
71195;BME280;58908;51.426;7.714;2022-12-10T01:06:36;99053.09;;;-1.37;100.00
71195;BME280;58908;51.426;7.714;2022-12-10T01:09:03;99052.41;;;-1.47;100.00
71195;BME280;58908;51.426;7.714;2022-12-10T01:11:34;99054.06;;;-1.43;100.00
71195;BME280;58908;51.426;7.714;2022-12-10T01:14:03;99057.47;;;-1.41;100.00
71195;BME280;58908;51.426;7.714;2022-12-10T01:16:30;99051.38;;;-1.38;100.00
71195;BME280;58908;51.426;7.714;2022-12-10T01:18:57;99063.38;;;-1.36;100.00
71195;BME280;58908;51.426;7.714;2022-12-10T01:21:24;99066.78;;;-1.34;100.00
71195;BME280;58908;51.426;7.714;2022-12-10T01:23:51;99065.94;;;-1.34;100.00
71195;BME280;58908;51.426;7.714;2022-12-10T01:26:19;99061.59;;;-1.32;100.00
71195;BME280;58908;51.426;7.714;2022-12-10T01:28:46;99070.13;;;-1.27;100.00
71195;BME280;58908;51.426;7.714;2022-12-10T01:31:15;99070.13;;;-1.27;100.00
71195;BME280;58908;51.426;7.714;2022-12-10T01:33:42;99077.00;;;-1.26;100.00
71195;BME280;58908;51.426;7.714;2022-12-10T01:36:09;99072.63;;;-1.24;100.00
71195;BME280;58908;51.426;7.714;2022-12-10T01:38:35;99071.75;;;-1.25;100.00
71195;BME280;58908;51.426;7.714;2022-12-10T01:41:02;99074.44;;;-1.29;100.00
71195;BME280;58908;51.426;7.714;2022-12-10T01:43:29;99079.59;;;-1.28;100.00
71195;BME280;58908;51.426;7.714;2022-12-10T01:46:14;99074.34;;;-1.25;100.00
71195;BME280;58908;51.426;7.714;2022-12-10T01:48:41;99078.69;;;-1.25;100.00
71195;BME280;58908;51.426;7.714;2022-12-10T01:51:07;99079.63;;;-1.29;100.00
71195;BME280;58908;51.426;7.714;2022-12-10T01:53:34;99082.25;;;-1.31;100.00
71195;BME280;58908;51.426;7.714;2022-12-10T01:56:00;99079.66;;;-1.31;100.00
71195;BME280;58908;51.426;7.714;2022-12-10T01:58:26;99074.44;;;-1.28;100.00
71195;BME280;58908;51.426;7.714;2022-12-10T02:00:56;99079.53;;;-1.25;100.00
71195;BME280;58908;51.426;7.714;2022-12-10T02:03:28;99080.41;;;-1.26;100.00
71195;BME280;58908;51.426;7.714;2022-12-10T02:05:58;99073.53;;;-1.27;100.00
71195;BME280;58908;51.426;7.714;2022-12-10T02:08:27;99082.09;;;-1.25;100.00
71195;BME280;58908;51.426;7.714;2022-12-10T02:10:59;99078.69;;;-1.25;100.00
71195;BME280;58908;51.426;7.714;2022-12-10T02:13:30;99080.41;;;-1.26;100.00
71195;BME280;58908;51.426;7.714;2022-12-10T02:16:00;99079.59;;;-1.28;100.00
71195;BME280;58908;51.426;7.714;2022-12-10T02:18:32;99089.03;;;-1.25;100.00
71195;BME280;58908;51.426;7.714;2022-12-10T02:21:02;99089.03;;;-1.25;100.00
71195;BME280;58908;51.426;7.714;2022-12-10T02:23:30;99089.03;;;-1.25;100.00
71195;BME280;58908;51.426;7.714;2022-12-10T02:25:59;99082.97;;;-1.24;100.00
71195;BME280;58908;51.426;7.714;2022-12-10T02:28:31;99079.53;;;-1.25;100.00
71195;BME280;58908;51.426;7.714;2022-12-10T02:31:01;99076.28;;;-1.33;100.00
71195;BME280;58908;51.426;7.714;2022-12-10T02:33:27;99075.31;;;-1.29;100.00
71195;BME280;58908;51.426;7.714;2022-12-10T02:35:55;99077.13;;;-1.34;100.00
71195;BME280;58908;51.426;7.714;2022-12-10T02:38:24;99075.41;;;-1.33;100.00
71195;BME280;58908;51.426;7.714;2022-12-10T02:40:53;99070.16;;;-1.30;100.00
71195;BME280;58908;51.426;7.714;2022-12-10T02:43:21;99060.78;;;-1.34;100.00
71195;BME280;58908;51.426;7.714;2022-12-10T02:45:48;99069.28;;;-1.29;100.00
71195;BME280;58908;51.426;7.714;2022-12-10T02:48:17;99064.06;;;-1.28;100.00
71195;BME280;58908;51.426;7.714;2022-12-10T02:50:44;99064.00;;;-1.25;100.00
71195;BME280;58908;51.426;7.714;2022-12-10T02:53:10;99063.97;;;-1.22;100.00
71195;BME280;58908;51.426;7.714;2022-12-10T02:55:42;99066.47;;;-1.19;100.00
71195;BME280;58908;51.426;7.714;2022-12-10T02:58:11;99067.41;;;-1.23;100.00
71195;BME280;58908;51.426;7.714;2022-12-10T03:00:41;99060.50;;;-1.21;100.00
71195;BME280;58908;51.426;7.714;2022-12-10T03:03:13;99069.97;;;-1.21;100.00
71195;BME280;58908;51.426;7.714;2022-12-10T03:05:46;99069.16;;;-1.23;100.00
71195;BME280;58908;51.426;7.714;2022-12-10T03:08:16;99066.50;;;-1.20;100.00
71195;BME280;58908;51.426;7.714;2022-12-10T03:10:45;99067.41;;;-1.23;100.00
71195;BME280;58908;51.426;7.714;2022-12-10T03:13:15;99069.16;;;-1.23;100.00
71195;BME280;58908;51.426;7.714;2022-12-10T03:15:42;99066.59;;;-1.25;100.00
71195;BME280;58908;51.426;7.714;2022-12-10T03:18:09;99064.88;;;-1.24;100.00
71195;BME280;58908;51.426;7.714;2022-12-10T03:20:38;99069.06;;;-1.19;100.00
71195;BME280;58908;51.426;7.714;2022-12-10T03:23:07;99068.16;;;-1.16;100.00
71195;BME280;58908;51.426;7.714;2022-12-10T03:25:34;99072.47;;;-1.17;100.00
71195;BME280;58908;51.426;7.714;2022-12-10T03:28:01;99080.25;;;-1.18;100.00
71195;BME280;58908;51.426;7.714;2022-12-10T03:30:27;99078.69;;;-1.25;100.00
71195;BME280;58908;51.426;7.714;2022-12-10T03:32:55;99083.78;;;-1.21;100.00
71195;BME280;58908;51.426;7.714;2022-12-10T03:35:21;99079.53;;;-1.25;100.00
71195;BME280;58908;51.426;7.714;2022-12-10T03:37:49;99075.16;;;-1.23;100.00
71195;BME280;58908;51.426;7.714;2022-12-10T03:40:18;99073.38;;;-1.19;100.00
71195;BME280;58908;51.426;7.714;2022-12-10T03:42:46;99074.16;;;-1.16;100.00
71195;BME280;58908;51.426;7.714;2022-12-10T03:45:12;99077.63;;;-1.17;100.00
71195;BME280;58908;51.426;7.714;2022-12-10T03:47:38;99076.75;;;-1.16;100.00
71195;BME280;58908;51.426;7.714;2022-12-10T03:50:05;99080.22;;;-1.17;100.00
71195;BME280;58908;51.426;7.714;2022-12-10T03:52:31;99072.47;;;-1.18;100.00
71195;BME280;58908;51.426;7.714;2022-12-10T03:54:57;99078.53;;;-1.18;100.00
71195;BME280;58908;51.426;7.714;2022-12-10T03:57:25;99082.81;;;-1.17;100.00
71195;BME280;58908;51.426;7.714;2022-12-10T03:59:51;99075.16;;;-1.23;100.00
71195;BME280;58908;51.426;7.714;2022-12-10T04:02:17;99077.91;;;-1.29;100.00
71195;BME280;58908;51.426;7.714;2022-12-10T04:04:44;99076.13;;;-1.27;100.00
71195;BME280;58908;51.426;7.714;2022-12-10T04:07:10;99079.56;;;-1.26;100.00
71195;BME280;58908;51.426;7.714;2022-12-10T04:09:36;99074.31;;;-1.22;100.00
71195;BME280;58908;51.426;7.714;2022-12-10T04:12:03;99085.59;;;-1.26;100.00
71195;BME280;58908;51.426;7.714;2022-12-10T04:14:33;99084.78;;;-1.29;100.00
71195;BME280;58908;51.426;7.714;2022-12-10T04:17:17;99087.34;;;-1.26;100.00
71195;BME280;58908;51.426;7.714;2022-12-10T04:19:43;99080.38;;;-1.24;100.00
71195;BME280;58908;51.426;7.714;2022-12-10T04:22:10;99079.50;;;-1.23;100.00
71195;BME280;58908;51.426;7.714;2022-12-10T04:24:54;99085.59;;;-1.26;100.00
71195;BME280;58908;51.426;7.714;2022-12-10T04:27:38;99082.09;;;-1.25;100.00
71195;BME280;58908;51.426;7.714;2022-12-10T04:30:08;99083.97;;;-1.30;100.00
71195;BME280;58908;51.426;7.714;2022-12-10T04:32:34;99081.38;;;-1.30;100.00
71195;BME280;58908;51.426;7.714;2022-12-10T04:35:01;99081.28;;;-1.27;100.00
71195;BME280;58908;51.426;7.714;2022-12-10T04:37:27;99080.56;;;-1.33;100.00
71195;BME280;58908;51.426;7.714;2022-12-10T04:39:54;99081.47;;;-1.36;100.00
71195;BME280;58908;51.426;7.714;2022-12-10T04:42:21;99079.63;;;-1.29;100.00
71195;BME280;58908;51.426;7.714;2022-12-10T04:44:47;99075.16;;;-1.23;100.00
71195;BME280;58908;51.426;7.714;2022-12-10T04:47:15;99083.88;;;-1.25;100.00
71195;BME280;58908;51.426;7.714;2022-12-10T04:49:41;99079.53;;;-1.25;100.00
71195;BME280;58908;51.426;7.714;2022-12-10T04:52:09;99083.88;;;-1.27;100.00
71195;BME280;58908;51.426;7.714;2022-12-10T04:54:36;99085.84;;;-1.39;100.00
71195;BME280;58908;51.426;7.714;2022-12-10T04:57:02;99086.72;;;-1.37;100.00
71195;BME280;58908;51.426;7.714;2022-12-10T04:59:28;99091.81;;;-1.36;100.00
71195;BME280;58908;51.426;7.714;2022-12-10T05:01:55;99092.75;;;-1.38;100.00
71195;BME280;58908;51.426;7.714;2022-12-10T05:04:22;99088.41;;;-1.36;100.00
71195;BME280;58908;51.426;7.714;2022-12-10T05:06:49;99084.13;;;-1.37;100.00
71195;BME280;58908;51.426;7.714;2022-12-10T05:09:15;99093.56;;;-1.36;100.00
71195;BME280;58908;51.426;7.714;2022-12-10T05:11:42;99082.28;;;-1.34;100.00
71195;BME280;58908;51.426;7.714;2022-12-10T05:14:09;99089.25;;;-1.36;100.00
71195;BME280;58908;51.426;7.714;2022-12-10T05:16:36;99086.56;;;-1.31;100.00
71195;BME280;58908;51.426;7.714;2022-12-10T05:19:02;99090.00;;;-1.31;100.00
71195;BME280;58908;51.426;7.714;2022-12-10T05:21:30;99102.06;;;-1.30;100.00
71195;BME280;58908;51.426;7.714;2022-12-10T05:24:10;99096.06;;;-1.32;100.00
71195;BME280;58908;51.426;7.714;2022-12-10T05:26:36;99094.41;;;-1.34;100.00
71195;BME280;58908;51.426;7.714;2022-12-10T05:29:02;99102.16;;;-1.36;100.00
71195;BME280;58908;51.426;7.714;2022-12-10T05:31:29;99103.00;;;-1.34;100.00
71195;BME280;58908;51.426;7.714;2022-12-10T05:33:56;99090.84;;;-1.30;100.00
71195;BME280;58908;51.426;7.714;2022-12-10T05:36:23;99097.78;;;-1.31;100.00
71195;BME280;58908;51.426;7.714;2022-12-10T05:38:51;99098.69;;;-1.33;100.00
71195;BME280;58908;51.426;7.714;2022-12-10T05:41:18;99100.31;;;-1.29;100.00
71195;BME280;58908;51.426;7.714;2022-12-10T05:43:45;99094.56;;;-1.43;100.00
71195;BME280;58908;51.426;7.714;2022-12-10T05:46:13;99098.03;;;-1.43;100.00
71195;BME280;58908;51.426;7.714;2022-12-10T05:48:39;99099.66;;;-1.39;100.00
71195;BME280;58908;51.426;7.714;2022-12-10T05:51:06;99102.16;;;-1.34;100.00
71195;BME280;58908;51.426;7.714;2022-12-10T05:53:33;99108.31;;;-1.40;100.00
71195;BME280;58908;51.426;7.714;2022-12-10T05:56:01;99106.50;;;-1.36;100.00
71195;BME280;58908;51.426;7.714;2022-12-10T05:58:28;99105.47;;;-1.29;100.00
71195;BME280;58908;51.426;7.714;2022-12-10T06:00:54;99108.94;;;-1.29;100.00
71195;BME280;58908;51.426;7.714;2022-12-10T06:03:21;99113.28;;;-1.31;100.00
71195;BME280;58908;51.426;7.714;2022-12-10T06:05:47;99116.72;;;-1.30;100.00
71195;BME280;58908;51.426;7.714;2022-12-10T06:08:13;99112.34;;;-1.28;100.00
71195;BME280;58908;51.426;7.714;2022-12-10T06:10:39;99121.06;;;-1.31;100.00
71195;BME280;58908;51.426;7.714;2022-12-10T06:13:07;99117.78;;;-1.40;100.00
71195;BME280;58908;51.426;7.714;2022-12-10T06:15:33;99115.91;;;-1.32;100.00
71195;BME280;58908;51.426;7.714;2022-12-10T06:18:00;99123.69;;;-1.34;100.00
71195;BME280;58908;51.426;7.714;2022-12-10T06:20:26;99118.72;;;-1.43;100.00
71195;BME280;58908;51.426;7.714;2022-12-10T06:22:52;99117.00;;;-1.44;100.00
71195;BME280;58908;51.426;7.714;2022-12-10T06:25:19;99119.53;;;-1.41;100.00
71195;BME280;58908;51.426;7.714;2022-12-10T06:27:45;99111.78;;;-1.41;100.00
71195;BME280;58908;51.426;7.714;2022-12-10T06:30:12;99112.59;;;-1.39;100.00
71195;BME280;58908;51.426;7.714;2022-12-10T06:32:39;99110.00;;;-1.39;100.00
71195;BME280;58908;51.426;7.714;2022-12-10T06:35:08;99115.09;;;-1.36;100.00
71195;BME280;58908;51.426;7.714;2022-12-10T06:37:34;99113.66;;;-1.50;100.00
71195;BME280;58908;51.426;7.714;2022-12-10T06:40:00;99116.22;;;-1.49;100.00
71195;BME280;58908;51.426;7.714;2022-12-10T06:42:27;99116.16;;;-1.44;100.00
71195;BME280;58908;51.426;7.714;2022-12-10T06:44:53;99122.31;;;-1.51;100.00
71195;BME280;58908;51.426;7.714;2022-12-10T06:47:20;99126.66;;;-1.52;100.00
71195;BME280;58908;51.426;7.714;2022-12-10T06:49:47;99126.81;;;-1.61;100.00
71195;BME280;58908;51.426;7.714;2022-12-10T06:52:13;99130.34;;;-1.65;100.00
71195;BME280;58908;51.426;7.714;2022-12-10T06:54:40;99128.59;;;-1.63;100.00
71195;BME280;58908;51.426;7.714;2022-12-10T06:57:06;99128.50;;;-1.58;100.00
71195;BME280;58908;51.426;7.714;2022-12-10T06:59:32;99132.66;;;-1.51;100.00
71195;BME280;58908;51.426;7.714;2022-12-10T07:01:58;99140.38;;;-1.48;100.00
71195;BME280;58908;51.426;7.714;2022-12-10T07:04:26;99145.53;;;-1.48;100.00
71195;BME280;58908;51.426;7.714;2022-12-10T07:06:52;99142.97;;;-1.50;100.00
71195;BME280;58908;51.426;7.714;2022-12-10T07:09:19;99141.19;;;-1.46;100.00
71195;BME280;58908;51.426;7.714;2022-12-10T07:11:45;99141.19;;;-1.46;100.00
71195;BME280;58908;51.426;7.714;2022-12-10T07:14:11;99144.69;;;-1.50;100.00
71195;BME280;58908;51.426;7.714;2022-12-10T07:16:39;99151.53;;;-1.46;100.00
71195;BME280;58908;51.426;7.714;2022-12-10T07:19:08;99151.63;;;-1.52;100.00
71195;BME280;58908;51.426;7.714;2022-12-10T07:21:37;99155.25;;;-1.59;100.00
71195;BME280;58908;51.426;7.714;2022-12-10T07:24:04;99161.38;;;-1.66;100.00
71195;BME280;58908;51.426;7.714;2022-12-10T07:26:32;99165.75;;;-1.68;100.00
71195;BME280;58908;51.426;7.714;2022-12-10T07:28:59;99168.34;;;-1.70;100.00
71195;BME280;58908;51.426;7.714;2022-12-10T07:31:26;99174.34;;;-1.68;100.00
71195;BME280;58908;51.426;7.714;2022-12-10T07:33:52;99169.97;;;-1.64;100.00
71195;BME280;58908;51.426;7.714;2022-12-10T07:36:19;99174.16;;;-1.59;100.00
71195;BME280;58908;51.426;7.714;2022-12-10T07:38:48;99180.22;;;-1.58;100.00
71195;BME280;58908;51.426;7.714;2022-12-10T07:41:15;99177.56;;;-1.57;100.00
71195;BME280;58908;51.426;7.714;2022-12-10T07:43:41;99170.75;;;-1.59;100.00
71195;BME280;58908;51.426;7.714;2022-12-10T07:46:09;99171.50;;;-1.53;100.00
71195;BME280;58908;51.426;7.714;2022-12-10T07:48:36;99170.69;;;-1.58;100.00
71195;BME280;58908;51.426;7.714;2022-12-10T07:51:02;99176.84;;;-1.63;100.00
71195;BME280;58908;51.426;7.714;2022-12-10T07:53:28;99176.09;;;-1.68;100.00
71195;BME280;58908;51.426;7.714;2022-12-10T07:55:56;99171.75;;;-1.68;100.00
71195;BME280;58908;51.426;7.714;2022-12-10T07:58:22;99175.34;;;-1.75;100.00
71195;BME280;58908;51.426;7.714;2022-12-10T08:00:49;99181.34;;;-1.74;100.00
71195;BME280;58908;51.426;7.714;2022-12-10T08:03:15;99186.56;;;-1.77;100.00
71195;BME280;58908;51.426;7.714;2022-12-10T08:05:42;99190.97;;;-1.82;100.00
71195;BME280;58908;51.426;7.714;2022-12-10T08:08:08;99187.69;;;-1.92;100.00
71195;BME280;58908;51.426;7.714;2022-12-10T08:10:34;99193.56;;;-1.82;100.00
71195;BME280;58908;51.426;7.714;2022-12-10T08:13:02;99178.06;;;-1.84;100.00
71195;BME280;58908;51.426;7.714;2022-12-10T08:15:28;99183.00;;;-1.70;100.00
71195;BME280;58908;51.426;7.714;2022-12-10T08:17:55;99186.69;;;-1.83;100.00
71195;BME280;58908;51.426;7.714;2022-12-10T08:20:21;99187.53;;;-1.81;100.00
71195;BME280;58908;51.426;7.714;2022-12-10T08:22:48;99185.69;;;-1.75;100.00
71195;BME280;58908;51.426;7.714;2022-12-10T08:25:14;99183.09;;;-1.76;100.00
71195;BME280;58908;51.426;7.714;2022-12-10T08:27:41;99192.47;;;-1.69;100.00
71195;BME280;58908;51.426;7.714;2022-12-10T08:30:09;99196.56;;;-1.58;100.00
71195;BME280;58908;51.426;7.714;2022-12-10T08:32:35;99206.91;;;-1.58;100.00
71195;BME280;58908;51.426;7.714;2022-12-10T08:35:02;99210.53;;;-1.68;100.00
71195;BME280;58908;51.426;7.714;2022-12-10T08:37:28;99214.94;;;-1.73;100.00
71195;BME280;58908;51.426;7.714;2022-12-10T08:39:54;99209.91;;;-1.80;100.00
71195;BME280;58908;51.426;7.714;2022-12-10T08:42:20;99209.22;;;-1.91;100.00
71195;BME280;58908;51.426;7.714;2022-12-10T08:44:47;99211.94;;;-1.99;100.00
71195;BME280;58908;51.426;7.714;2022-12-10T08:47:14;99219.50;;;-1.87;100.00
71195;BME280;58908;51.426;7.714;2022-12-10T08:49:40;99227.31;;;-1.93;100.00
71195;BME280;58908;51.426;7.714;2022-12-10T08:52:07;99229.78;;;-1.85;100.00
71195;BME280;58908;51.426;7.714;2022-12-10T08:54:33;99229.75;;;-1.82;100.00
71195;BME280;58908;51.426;7.714;2022-12-10T08:56:59;99229.84;;;-1.88;100.00
71195;BME280;58908;51.426;7.714;2022-12-10T08:59:26;99235.06;;;-1.91;100.00
71195;BME280;58908;51.426;7.714;2022-12-10T09:01:53;99237.09;;;-2.11;100.00
71195;BME280;58908;51.426;7.714;2022-12-10T09:04:20;99239.59;;;-2.05;100.00
71195;BME280;58908;51.426;7.714;2022-12-10T09:06:46;99237.78;;;-1.99;100.00
71195;BME280;58908;51.426;7.714;2022-12-10T09:09:13;99241.78;;;-1.81;100.00
71195;BME280;58908;51.426;7.714;2022-12-10T09:11:39;99246.03;;;-1.77;100.00
71195;BME280;58908;51.426;7.714;2022-12-10T09:14:05;99244.34;;;-1.80;100.00
71195;BME280;58908;51.426;7.714;2022-12-10T09:16:33;99245.06;;;-1.72;100.00
71195;BME280;58908;51.426;7.714;2022-12-10T09:19:00;99251.09;;;-1.71;100.00
71195;BME280;58908;51.426;7.714;2022-12-10T09:21:27;99252.00;;;-1.72;100.00
71195;BME280;58908;51.426;7.714;2022-12-10T09:23:54;99254.72;;;-1.83;100.00
71195;BME280;58908;51.426;7.714;2022-12-10T09:26:21;99258.09;;;-1.78;100.00
71195;BME280;58908;51.426;7.714;2022-12-10T09:28:47;99255.53;;;-1.78;100.00
71195;BME280;58908;51.426;7.714;2022-12-10T09:31:15;99258.09;;;-1.78;100.00
71195;BME280;58908;51.426;7.714;2022-12-10T09:33:41;99255.41;;;-1.73;100.00
71195;BME280;58908;51.426;7.714;2022-12-10T09:36:08;99257.91;;;-1.66;100.00
71195;BME280;58908;51.426;7.714;2022-12-10T09:38:38;99249.28;;;-1.68;100.00
71195;BME280;58908;51.426;7.714;2022-12-10T09:41:05;99250.00;;;-1.58;100.00
71195;BME280;58908;51.426;7.714;2022-12-10T09:43:41;99255.03;;;-1.49;100.00
71195;BME280;58908;51.426;7.714;2022-12-10T09:46:12;99248.94;;;-1.47;100.00
71195;BME280;58908;51.426;7.714;2022-12-10T09:48:46;99245.66;;;-1.56;100.00
71195;BME280;58908;51.426;7.714;2022-12-10T09:51:18;99248.59;;;-1.77;100.00
71195;BME280;58908;51.426;7.714;2022-12-10T09:53:48;99250.25;;;-1.73;100.00
71195;BME280;58908;51.426;7.714;2022-12-10T09:56:18;99252.75;;;-1.67;100.00
71195;BME280;58908;51.426;7.714;2022-12-10T09:58:45;99257.06;;;-1.68;100.00
71195;BME280;58908;51.426;7.714;2022-12-10T10:01:12;99266.63;;;-1.73;100.00
71195;BME280;58908;51.426;7.714;2022-12-10T10:03:40;99253.09;;;-1.87;100.00
71195;BME280;58908;51.426;7.714;2022-12-10T10:06:08;99260.44;;;-1.63;100.00
71195;BME280;58908;51.426;7.714;2022-12-10T10:08:36;99258.75;;;-1.65;100.00
71195;BME280;58908;51.426;7.714;2022-12-10T10:11:08;99261.19;;;-1.58;100.00
71195;BME280;58908;51.426;7.714;2022-12-10T10:13:38;99257.56;;;-1.46;100.00
71195;BME280;58908;51.426;7.714;2022-12-10T10:16:13;99260.06;;;-1.42;100.00
71195;BME280;58908;51.426;7.714;2022-12-10T10:18:43;99252.53;;;-1.54;100.00
71195;BME280;58908;51.426;7.714;2022-12-10T10:21:20;99253.94;;;-1.36;100.00
71195;BME280;58908;51.426;7.714;2022-12-10T10:23:47;99252.00;;;-1.25;100.00
71195;BME280;58908;51.426;7.714;2022-12-10T10:26:15;99252.00;;;-1.25;100.00
71195;BME280;58908;51.426;7.714;2022-12-10T10:28:41;99254.84;;;-1.40;100.00
71195;BME280;58908;51.426;7.714;2022-12-10T10:31:12;99249.66;;;-1.40;100.00
71195;BME280;58908;51.426;7.714;2022-12-10T10:33:47;99251.50;;;-1.45;100.00
71195;BME280;58908;51.426;7.714;2022-12-10T10:36:13;99251.72;;;-1.59;100.00
71195;BME280;58908;51.426;7.714;2022-12-10T10:38:43;99253.28;;;-1.50;100.00
71195;BME280;58908;51.426;7.714;2022-12-10T10:41:12;99253.78;;;-1.29;100.00
71195;BME280;58908;51.426;7.714;2022-12-10T10:43:41;99249.13;;;-1.12;100.00
71195;BME280;58908;51.426;7.714;2022-12-10T10:46:11;99254.00;;;-0.95;100.00
71195;BME280;58908;51.426;7.714;2022-12-10T10:48:38;99254.94;;;-0.98;100.00
71195;BME280;58908;51.426;7.714;2022-12-10T10:51:05;99252.41;;;-1.02;100.00
71195;BME280;58908;51.426;7.714;2022-12-10T10:53:32;99249.69;;;-0.95;100.00
71195;BME280;58908;51.426;7.714;2022-12-10T10:56:01;99253.88;;;-0.89;100.00
71195;BME280;58908;51.426;7.714;2022-12-10T10:58:31;99255.56;;;-0.87;100.00
71195;BME280;58908;51.426;7.714;2022-12-10T11:01:00;99249.63;;;-0.92;100.00
71195;BME280;58908;51.426;7.714;2022-12-10T11:03:28;99248.69;;;-0.88;100.00
71195;BME280;58908;51.426;7.714;2022-12-10T11:05:55;99257.00;;;-1.16;100.00
71195;BME280;58908;51.426;7.714;2022-12-10T11:08:23;99254.13;;;-1.01;100.00
71195;BME280;58908;51.426;7.714;2022-12-10T11:10:51;99255.72;;;-0.94;100.00
71195;BME280;58908;51.426;7.714;2022-12-10T11:13:22;99248.47;;;-1.23;100.00
71195;BME280;58908;51.426;7.714;2022-12-10T11:15:54;99249.84;;;-1.02;100.00
71195;BME280;58908;51.426;7.714;2022-12-10T11:18:24;99245.97;;;-0.82;100.00
71195;BME280;58908;51.426;7.714;2022-12-10T11:20:58;99244.28;;;-0.84;100.00
71195;BME280;58908;51.426;7.714;2022-12-10T11:23:26;99259.63;;;-0.74;100.00
71195;BME280;58908;51.426;7.714;2022-12-10T11:25:55;99241.41;;;-0.71;100.00
71195;BME280;58908;51.426;7.714;2022-12-10T11:28:28;99249.13;;;-0.68;100.00
71195;BME280;58908;51.426;7.714;2022-12-10T11:30:59;99250.22;;;-0.79;100.00
71195;BME280;58908;51.426;7.714;2022-12-10T11:33:34;99254.63;;;-0.84;100.00
71195;BME280;58908;51.426;7.714;2022-12-10T11:36:04;99252.66;;;-0.72;100.00
71195;BME280;58908;51.426;7.714;2022-12-10T11:38:35;99258.19;;;-0.88;100.00
71195;BME280;58908;51.426;7.714;2022-12-10T11:41:09;99260.69;;;-0.84;100.00
71195;BME280;58908;51.426;7.714;2022-12-10T11:43:42;99259.72;;;-0.80;100.00
71195;BME280;58908;51.426;7.714;2022-12-10T11:46:14;99266.69;;;-0.83;100.00
71195;BME280;58908;51.426;7.714;2022-12-10T11:48:49;99264.16;;;-0.85;100.00
71195;BME280;58908;51.426;7.714;2022-12-10T11:51:19;99261.34;;;-0.74;100.00
71195;BME280;58908;51.426;7.714;2022-12-10T11:53:51;99266.47;;;-0.71;100.00
71195;BME280;58908;51.426;7.714;2022-12-10T11:56:21;99270.16;;;-0.83;100.00
71195;BME280;58908;51.426;7.714;2022-12-10T11:58:56;99267.69;;;-0.89;100.00
71195;BME280;58908;51.426;7.714;2022-12-10T12:01:26;99264.00;;;-0.77;100.00
71195;BME280;58908;51.426;7.714;2022-12-10T12:04:02;99274.75;;;-0.98;100.00
71195;BME280;58908;51.426;7.714;2022-12-10T12:06:39;99277.41;;;-1.00;100.00
71195;BME280;58908;51.426;7.714;2022-12-10T12:09:11;99262.59;;;-0.93;100.00
71195;BME280;58908;51.426;7.714;2022-12-10T12:11:47;99268.50;;;-0.87;100.00
71195;BME280;58908;51.426;7.714;2022-12-10T12:14:19;99273.72;;;-0.88;100.00
71195;BME280;58908;51.426;7.714;2022-12-10T12:16:48;99274.41;;;-0.80;100.00
71195;BME280;58908;51.426;7.714;2022-12-10T12:19:19;99272.00;;;-0.88;100.00
71195;BME280;58908;51.426;7.714;2022-12-10T12:21:49;99268.53;;;-0.88;100.00
71195;BME280;58908;51.426;7.714;2022-12-10T12:24:16;99267.78;;;-0.95;100.00
71195;BME280;58908;51.426;7.714;2022-12-10T12:26:46;99272.41;;;-1.10;100.00
71195;BME280;58908;51.426;7.714;2022-12-10T12:29:15;99276.81;;;-1.15;100.00
71195;BME280;58908;51.426;7.714;2022-12-10T12:31:45;99267.31;;;-1.13;100.00
71195;BME280;58908;51.426;7.714;2022-12-10T12:34:13;99278.41;;;-1.08;100.00
71195;BME280;58908;51.426;7.714;2022-12-10T12:36:43;99268.06;;;-1.08;100.00
71195;BME280;58908;51.426;7.714;2022-12-10T12:39:11;99267.94;;;-1.02;100.00
71195;BME280;58908;51.426;7.714;2022-12-10T12:41:40;99265.97;;;-0.90;100.00
71195;BME280;58908;51.426;7.714;2022-12-10T12:44:09;99265.06;;;-0.87;100.00
71195;BME280;58908;51.426;7.714;2022-12-10T12:46:39;99270.16;;;-0.84;100.00
71195;BME280;58908;51.426;7.714;2022-12-10T12:49:09;99270.69;;;-0.67;100.00
71195;BME280;58908;51.426;7.714;2022-12-10T12:51:38;99261.91;;;-1.03;100.00
71195;BME280;58908;51.426;7.714;2022-12-10T12:54:08;99265.84;;;-0.84;100.00